Nulato, Alaska
Current Conditions -  °F | °C
As of 8:53 PM on Saturday 20 Dec 2014 (Local Time) from PAKV Reporting Station
Clear Clear  
Wind Chill: -27°   Ceiling: Unl
Heat Index: -27°   Visibility: 10mi
Dew Point: -29°   Wind: 3mph
Humidity: 79%   Direction: 230°SW
Pressure: 29.27"   Gusts: NA
Location:  64.72°N, 158.13°W
Report Text: PAKV 210553Z AUTO 23003KT 10SM CLR M27/M29 A2927 RMK AO1 SLP918 T12671294 11250 21272 50004 FZRANO TSNO
Loading
Personal Weather Stations






























Interactive Weather Map New forecast layout! Learn more

10-Day Weather Forecast

Advertisements
Track Severe Weather on mobile